createdAt,value
2019-06-01T00:01:17.690Z,65.14
2019-06-01T00:03:46.497Z,65.22
2019-06-01T00:06:14.170Z,65.26
2019-06-01T00:08:44.993Z,65.25
2019-06-01T00:11:15.726Z,65.23
2019-06-01T00:13:47.692Z,65.28
2019-06-01T00:16:15.346Z,65.28
2019-06-01T00:18:43.995Z,65.37
2019-06-01T00:21:14.824Z,65.48
2019-06-01T00:23:44.943Z,65.57
2019-06-01T00:26:14.671Z,65.68
2019-06-01T00:28:47.895Z,65.77
2019-06-01T00:31:16.777Z,65.88
2019-06-01T00:33:47.320Z,65.99
2019-06-01T00:36:21.254Z,66.07
2019-06-01T00:38:52.052Z,66.16
2019-06-01T00:41:22.488Z,66.26
2019-06-01T00:43:50.579Z,66.33
2019-06-01T00:46:19.474Z,66.22
2019-06-01T00:48:48.173Z,66.43
2019-06-01T00:51:21.489Z,66.43
2019-06-01T00:53:51.894Z,66.46
2019-06-01T00:56:19.986Z,66.47
2019-06-01T00:58:47.887Z,66.43
2019-06-01T01:01:15.850Z,66.43
2019-06-01T01:03:43.961Z,66.50
2019-06-01T01:06:11.800Z,66.49
2019-06-01T01:08:39.396Z,66.50
2019-06-01T01:11:08.893Z,66.52
2019-06-01T01:13:38.491Z,66.56
2019-06-01T01:16:05.980Z,66.57
2019-06-01T01:18:33.611Z,66.49
2019-06-01T01:21:01.624Z,66.85
2019-06-01T01:23:29.579Z,66.85
2019-06-01T01:25:58.583Z,66.80
2019-06-01T01:28:29.254Z,66.80
2019-06-01T01:31:11.703Z,66.67
2019-06-01T01:33:27.855Z,66.51
2019-06-01T01:35:55.823Z,66.92
2019-06-01T01:38:27.354Z,66.92
2019-06-01T01:40:56.169Z,66.88
2019-06-01T01:43:23.901Z,66.86
2019-06-01T01:45:52.739Z,66.86
2019-06-01T01:48:20.357Z,66.90
2019-06-01T01:50:47.913Z,66.87
2019-06-01T01:53:15.642Z,66.83
2019-06-01T01:55:43.723Z,66.83
2019-06-01T01:58:11.591Z,66.85
2019-06-01T02:00:39.769Z,66.87
2019-06-01T02:03:07.364Z,66.89
2019-06-01T02:05:35.474Z,66.92
2019-06-01T02:08:03.270Z,66.99
2019-06-01T02:10:30.927Z,67.04
2019-06-01T02:12:59.633Z,67.11
2019-06-01T02:15:30.675Z,67.13
2019-06-01T02:17:58.295Z,67.10
2019-06-01T02:20:26.269Z,67.07
2019-06-01T02:22:54.703Z,67.04
2019-06-01T02:25:22.851Z,67.05
2019-06-01T02:27:50.629Z,67.05
2019-06-01T02:30:18.384Z,67.20
2019-06-01T02:32:46.248Z,67.20
2019-06-01T02:35:14.518Z,67.15
2019-06-01T02:37:42.382Z,67.21
2019-06-01T02:40:10.183Z,67.45
2019-06-01T02:42:38.525Z,67.45
2019-06-01T02:45:06.398Z,67.26
2019-06-01T02:47:34.150Z,67.25
2019-06-01T02:50:04.254Z,67.46
2019-06-01T02:52:32.154Z,67.46
2019-06-01T02:54:59.962Z,67.16
2019-06-01T02:57:30.855Z,67.16
2019-06-01T02:59:58.718Z,67.39
2019-06-01T03:02:26.995Z,67.45
2019-06-01T03:04:54.864Z,67.53
2019-06-01T03:07:22.734Z,67.61
2019-06-01T03:09:50.584Z,67.67
2019-06-01T03:12:18.874Z,67.73
2019-06-01T03:14:46.734Z,67.73
2019-06-01T03:17:14.599Z,67.69
2019-06-01T03:19:42.325Z,67.89
2019-06-01T03:22:10.386Z,67.89
2019-06-01T03:24:38.251Z,67.53
2019-06-01T03:27:06.580Z,67.51
2019-06-01T03:29:34.371Z,67.54
2019-06-01T03:32:23.940Z,67.61
2019-06-01T03:34:32.117Z,67.61
2019-06-01T03:37:00.986Z,67.86
2019-06-01T03:39:29.326Z,67.86
2019-06-01T03:41:57.151Z,67.63
2019-06-01T03:44:25.028Z,67.63
2019-06-01T03:46:53.301Z,67.54
2019-06-01T03:49:23.226Z,67.23
2019-06-01T03:51:51.179Z,67.23
2019-06-01T03:54:19.560Z,67.46
2019-06-01T03:56:47.431Z,67.46
2019-06-01T03:59:15.186Z,67.32
2019-06-01T04:01:43.062Z,67.21
2019-06-01T04:04:11.544Z,67.10
2019-06-01T04:06:48.372Z,66.98
2019-06-01T04:09:16.130Z,66.67
2019-06-01T04:11:45.987Z,66.67
2019-06-01T04:14:13.854Z,66.00
2019-06-01T04:16:44.713Z,66.00
2019-06-01T04:19:14.411Z,66.04
2019-06-01T04:21:42.278Z,65.86
2019-06-01T04:24:10.268Z,65.64
2019-06-01T04:26:38.628Z,65.43
2019-06-01T04:29:06.624Z,65.25
2019-06-01T04:31:34.346Z,64.87
2019-06-01T04:34:02.488Z,64.87
2019-06-01T04:36:30.779Z,64.51
2019-06-01T04:38:59.655Z,64.51
2019-06-01T04:41:27.380Z,64.41
2019-06-01T04:43:55.147Z,64.30
2019-06-01T04:46:23.300Z,64.16
2019-06-01T04:48:51.089Z,64.04
2019-06-01T04:51:18.946Z,63.88
2019-06-01T04:53:46.796Z,63.78
2019-06-01T04:56:15.317Z,63.78
2019-06-01T04:58:43.253Z,63.25
2019-06-01T05:01:11.001Z,62.85
2019-06-01T05:03:38.873Z,62.26
2019-06-01T05:06:07.278Z,62.26
2019-06-01T05:08:35.013Z,62.05
2019-06-01T05:11:05.228Z,61.95
2019-06-01T05:13:32.903Z,61.84
2019-06-01T05:16:00.619Z,61.81
2019-06-01T05:18:28.949Z,62.03
2019-06-01T05:20:56.813Z,62.03
2019-06-01T05:23:27.620Z,61.94
2019-06-01T05:25:56.194Z,61.77
2019-06-01T05:28:26.145Z,61.77
2019-06-01T05:30:57.288Z,61.63
2019-06-01T05:33:36.985Z,61.41
2019-06-01T05:35:54.670Z,61.26
2019-06-01T05:38:22.971Z,60.70
2019-06-01T05:40:52.002Z,60.70
2019-06-01T05:43:21.308Z,61.15
2019-06-01T05:45:52.363Z,60.57
2019-06-01T05:48:25.082Z,60.57
2019-06-01T05:50:49.558Z,60.25
2019-06-01T05:53:19.763Z,60.25
2019-06-01T05:55:47.691Z,60.54
2019-06-01T05:58:17.121Z,60.30
2019-06-01T06:00:45.098Z,60.01
2019-06-01T06:03:16.215Z,59.65
2019-06-01T06:05:43.792Z,59.44
2019-06-01T06:08:12.725Z,59.19
2019-06-01T06:10:42.839Z,58.91
2019-06-01T06:13:11.135Z,58.65
2019-06-01T06:15:41.182Z,58.38
2019-06-01T06:18:09.350Z,58.12
2019-06-01T06:20:37.101Z,57.12
2019-06-01T06:23:07.296Z,57.12
2019-06-01T06:25:38.302Z,57.37
2019-06-01T06:28:05.346Z,57.21
2019-06-01T06:30:33.141Z,57.06
2019-06-01T06:33:06.185Z,57.24
2019-06-01T06:38:09.658Z,56.79
2019-06-01T06:40:37.380Z,56.78
2019-06-01T06:43:18.639Z,56.18
2019-06-01T06:45:34.979Z,56.18
2019-06-01T06:48:07.369Z,56.24
2019-06-01T06:50:39.532Z,56.06
2019-06-01T06:53:06.299Z,56.30
2019-06-01T06:55:35.403Z,56.30
2019-06-01T06:58:03.660Z,55.81
2019-06-01T07:00:31.712Z,55.84
2019-06-01T07:03:01.845Z,55.30
2019-06-01T07:05:31.805Z,55.30
2019-06-01T07:07:59.806Z,55.51
2019-06-01T07:10:28.332Z,55.23
2019-06-01T07:12:56.137Z,55.04
2019-06-01T07:15:25.447Z,54.84
2019-06-01T07:17:53.240Z,54.59
2019-06-01T07:20:21.528Z,54.56
2019-06-01T07:22:49.690Z,54.49
2019-06-01T07:25:17.567Z,54.40
2019-06-01T07:27:45.260Z,54.37
2019-06-01T07:30:14.579Z,54.36
2019-06-01T07:32:42.344Z,54.39
2019-06-01T07:35:10.088Z,54.28
2019-06-01T07:37:40.971Z,54.16
2019-06-01T07:40:13.164Z,54.14
2019-06-01T07:42:38.365Z,54.01
2019-06-01T07:45:07.712Z,53.92
2019-06-01T07:47:36.716Z,53.76
2019-06-01T07:50:05.529Z,53.61
2019-06-01T07:52:36.792Z,53.48
2019-06-01T07:55:04.494Z,53.37
2019-06-01T07:57:32.269Z,53.29
2019-06-01T08:00:01.815Z,53.11
2019-06-01T08:02:30.766Z,52.81
2019-06-01T08:05:00.338Z,52.81
2019-06-01T08:07:29.242Z,52.90
2019-06-01T08:09:57.138Z,52.26
2019-06-01T08:12:29.874Z,52.26
2019-06-01T08:14:58.060Z,52.15
2019-06-01T08:17:26.089Z,52.36
2019-06-01T08:19:56.873Z,52.36
2019-06-01T08:22:25.970Z,52.27
2019-06-01T08:24:53.802Z,52.12
2019-06-01T08:27:22.420Z,51.90
2019-06-01T08:29:55.929Z,51.76
2019-06-01T08:32:24.534Z,51.63
2019-06-01T08:35:07.109Z,51.43
2019-06-01T08:37:23.522Z,51.35
2019-06-01T08:39:53.528Z,51.16
2019-06-01T08:42:21.299Z,50.90
2019-06-01T08:44:49.519Z,50.64
2019-06-01T08:47:17.301Z,50.50
2019-06-01T08:49:47.392Z,50.50
2019-06-01T08:52:17.584Z,49.77
2019-06-01T08:54:45.321Z,49.77
2019-06-01T08:57:14.213Z,49.90
2019-06-01T08:59:43.299Z,49.73
2019-06-01T09:02:11.111Z,49.39
2019-06-01T09:04:38.983Z,49.30
2019-06-01T09:07:07.195Z,49.23
2019-06-01T09:09:35.216Z,49.23
2019-06-01T09:12:05.370Z,49.39
2019-06-01T09:14:35.635Z,49.46
2019-06-01T09:17:03.451Z,49.38
2019-06-01T09:19:34.223Z,49.10
2019-06-01T09:22:07.507Z,48.46
2019-06-01T09:24:37.954Z,48.46
2019-06-01T09:27:08.581Z,48.19
2019-06-01T09:29:44.791Z,47.90
2019-06-01T09:34:52.520Z,47.46
2019-06-01T09:37:23.180Z,47.40
2019-06-01T09:39:50.889Z,47.68
2019-06-01T09:42:18.690Z,47.82
2019-06-01T09:44:46.825Z,47.87
2019-06-01T09:47:14.965Z,47.96
2019-06-01T09:49:42.684Z,47.99
2019-06-01T09:52:12.453Z,47.99
2019-06-01T09:54:40.277Z,47.87
2019-06-01T09:57:10.395Z,47.79
2019-06-01T09:59:38.267Z,47.30
2019-06-01T10:02:06.399Z,46.67
2019-06-01T10:04:34.457Z,46.22
2019-06-01T10:07:10.291Z,45.67
2019-06-01T10:09:38.366Z,45.19
2019-06-01T10:12:06.189Z,44.83
2019-06-01T10:14:39.395Z,44.47
2019-06-01T10:17:10.428Z,43.94
2019-06-01T10:19:38.876Z,43.62
2019-06-01T10:22:11.166Z,43.19
2019-06-01T10:24:42.188Z,43.01
2019-06-01T10:27:12.011Z,42.29
2019-06-01T10:29:40.128Z,42.29
2019-06-01T10:32:16.745Z,41.95
2019-06-01T10:34:44.856Z,41.56
2019-06-01T10:37:12.921Z,41.56
2019-06-01T10:39:41.413Z,40.29
2019-06-01T10:42:09.190Z,40.29
2019-06-01T10:44:41.775Z,40.23
2019-06-01T10:47:08.574Z,40.21
2019-06-01T10:49:38.525Z,40.14
2019-06-01T10:52:07.012Z,39.80
2019-06-01T10:54:36.030Z,39.38
2019-06-01T10:57:03.847Z,38.78
2019-06-01T10:59:32.252Z,38.60
2019-06-01T11:02:00.035Z,38.46
2019-06-01T11:04:27.840Z,38.37
2019-06-01T11:06:55.940Z,37.89
2019-06-01T11:09:23.790Z,37.78
2019-06-01T11:11:51.588Z,37.54
2019-06-01T11:14:19.783Z,37.42
2019-06-01T11:16:52.698Z,37.33
2019-06-01T11:19:19.802Z,37.14
2019-06-01T11:22:06.581Z,36.83
2019-06-01T11:24:37.188Z,36.83
2019-06-01T11:27:07.412Z,36.46
2019-06-01T11:29:41.185Z,36.38
2019-06-01T11:32:04.648Z,35.88
2019-06-01T11:34:33.896Z,35.65
2019-06-01T11:37:05.471Z,35.76
2019-06-01T11:39:31.181Z,35.79
2019-06-01T11:41:59.359Z,35.86
2019-06-01T11:44:27.164Z,35.74
2019-06-01T11:46:55.022Z,35.71
2019-06-01T11:49:25.907Z,35.58
2019-06-01T11:51:56.135Z,35.33
2019-06-01T11:54:27.201Z,35.22
2019-06-01T11:56:56.889Z,34.92
2019-06-01T11:59:24.638Z,34.90
2019-06-01T12:01:55.373Z,34.85
2019-06-01T12:04:25.180Z,34.68
2019-06-01T12:07:13.483Z,34.34
2019-06-01T12:09:25.250Z,34.24
2019-06-01T12:11:57.799Z,34.21
2019-06-01T12:14:25.589Z,34.36
2019-06-01T12:16:53.380Z,34.41
2019-06-01T12:19:21.478Z,34.45
2019-06-01T12:21:49.230Z,34.23
2019-06-01T12:24:18.373Z,33.94
2019-06-01T12:26:47.507Z,33.76
2019-06-01T12:29:17.372Z,33.48
2019-06-01T12:31:46.534Z,33.52
2019-06-01T12:34:14.801Z,33.76
2019-06-01T12:36:42.752Z,33.87
2019-06-01T12:39:12.841Z,33.62
2019-06-01T12:41:45.516Z,33.22
2019-06-01T12:44:15.844Z,33.16
2019-06-01T12:46:46.970Z,33.00
2019-06-01T12:49:14.945Z,32.93
2019-06-01T12:51:42.747Z,32.84
2019-06-01T12:54:10.865Z,32.90
2019-06-01T12:56:38.658Z,32.73
2019-06-01T12:59:22.720Z,32.60
2019-06-01T13:01:51.375Z,32.55
2019-06-01T13:04:19.152Z,32.50
2019-06-01T13:06:51.108Z,32.34
2019-06-01T13:09:21.056Z,32.34
2019-06-01T13:11:54.626Z,32.25
2019-06-01T13:14:25.120Z,31.84
2019-06-01T13:17:06.319Z,31.52
2019-06-01T13:19:22.740Z,31.33
2019-06-01T13:21:51.679Z,31.23
2019-06-01T13:24:19.544Z,31.33
2019-06-01T13:26:47.854Z,31.63
2019-06-01T13:29:15.751Z,31.74
2019-06-01T13:31:44.333Z,31.78
2019-06-01T13:34:15.435Z,31.48
2019-06-01T13:36:46.449Z,30.95
2019-06-01T13:39:17.388Z,30.59
2019-06-01T13:41:47.033Z,30.38
2019-06-01T13:44:14.930Z,30.11
2019-06-01T13:46:43.454Z,30.13
2019-06-01T13:49:14.464Z,30.42
2019-06-01T13:51:44.023Z,30.62
2019-06-01T13:54:11.849Z,30.66
2019-06-01T13:56:46.758Z,30.79
2019-06-01T13:59:16.037Z,31.08
2019-06-01T14:01:45.085Z,30.86
2019-06-01T14:04:13.327Z,30.21
2019-06-01T14:06:43.225Z,29.74
2019-06-01T14:09:13.739Z,29.47
2019-06-01T14:11:43.419Z,29.30
2019-06-01T14:14:13.885Z,29.27
2019-06-01T14:16:45.362Z,29.18
2019-06-01T14:19:13.761Z,29.00
2019-06-01T14:21:41.482Z,29.18
2019-06-01T14:24:09.279Z,29.23
2019-06-01T14:26:37.429Z,29.20
2019-06-01T14:29:07.475Z,29.10
2019-06-01T14:31:35.206Z,29.08
2019-06-01T14:34:07.370Z,29.05
2019-06-01T14:36:40.869Z,29.11
2019-06-01T14:39:08.548Z,29.33
2019-06-01T14:41:42.816Z,29.32
2019-06-01T14:44:10.542Z,29.29
2019-06-01T14:46:53.653Z,29.03
2019-06-01T14:49:11.238Z,29.10
2019-06-01T14:51:40.128Z,28.96
2019-06-01T14:54:07.838Z,28.82
2019-06-01T14:56:36.108Z,28.75
2019-06-01T14:59:08.698Z,28.62
2019-06-01T15:01:39.078Z,28.25
2019-06-01T15:04:10.197Z,28.24
2019-06-01T15:06:45.188Z,28.26
2019-06-01T15:09:23.221Z,28.23
2019-06-01T15:11:42.720Z,27.82
2019-06-01T15:14:10.431Z,27.40
2019-06-01T15:16:41.807Z,27.45
2019-06-01T15:19:12.834Z,27.45
2019-06-01T15:21:40.706Z,27.27
2019-06-01T15:24:11.255Z,27.22
2019-06-01T15:26:39.336Z,27.30
2019-06-01T15:29:07.313Z,27.77
2019-06-01T15:31:36.486Z,27.99
2019-06-01T15:34:08.080Z,28.22
2019-06-01T15:36:35.561Z,28.38
2019-06-01T15:39:03.305Z,28.50
2019-06-01T15:41:33.026Z,28.73
2019-06-01T15:44:02.386Z,27.96
2019-06-01T15:46:31.957Z,27.96
2019-06-01T15:49:05.873Z,28.08
2019-06-01T15:51:36.315Z,27.73
2019-06-01T15:54:04.045Z,27.38
2019-06-01T15:56:32.152Z,27.38
2019-06-01T15:59:02.884Z,27.78
2019-06-01T16:01:33.145Z,27.80
2019-06-01T16:04:01.413Z,27.76
2019-06-01T16:06:32.263Z,27.82
2019-06-01T16:08:59.967Z,28.07
2019-06-01T16:11:28.241Z,28.53
2019-06-01T16:13:59.622Z,29.03
2019-06-01T16:16:28.012Z,29.44
2019-06-01T16:19:04.864Z,29.59
2019-06-01T16:21:45.114Z,29.72
2019-06-01T16:24:00.486Z,30.35
2019-06-01T16:26:28.764Z,31.68
2019-06-01T16:28:58.472Z,33.04
2019-06-01T16:31:27.848Z,34.18
2019-06-01T16:33:56.577Z,35.16
2019-06-01T16:36:24.765Z,35.98
2019-06-01T16:38:52.498Z,36.62
2019-06-01T16:41:20.651Z,37.15
2019-06-01T16:43:52.643Z,37.56
2019-06-01T16:46:39.179Z,37.74
2019-06-01T16:49:09.234Z,37.14
2019-06-01T16:51:36.956Z,36.08
2019-06-01T16:54:06.723Z,35.66
2019-06-01T16:56:34.426Z,36.05
2019-06-01T16:59:02.369Z,36.72
2019-06-01T17:01:34.368Z,37.29
2019-06-01T17:04:06.688Z,38.61
2019-06-01T17:06:34.683Z,38.61
2019-06-01T17:09:03.769Z,38.79
2019-06-01T17:11:32.122Z,39.17
2019-06-01T17:14:00.787Z,39.50
2019-06-01T17:16:33.207Z,39.79
2019-06-01T17:19:01.325Z,39.98
2019-06-01T17:21:29.396Z,40.18
2019-06-01T17:23:57.436Z,40.29
2019-06-01T17:26:25.230Z,40.42
2019-06-01T17:28:53.497Z,40.51
2019-06-01T17:31:21.216Z,40.56
2019-06-01T17:33:52.014Z,40.63
2019-06-01T17:36:20.176Z,40.71
2019-06-01T17:38:47.944Z,40.77
2019-06-01T17:41:15.706Z,40.83
2019-06-01T17:43:43.911Z,40.89
2019-06-01T17:46:12.067Z,40.95
2019-06-01T17:48:42.842Z,41.02
2019-06-01T17:51:13.482Z,41.06
2019-06-01T17:53:41.269Z,41.09
2019-06-01T17:56:12.182Z,41.15
2019-06-01T17:58:41.875Z,41.23
2019-06-01T18:01:09.973Z,41.30
2019-06-01T18:03:37.805Z,41.35
2019-06-01T18:06:06.016Z,41.43
2019-06-01T18:08:33.725Z,41.50
2019-06-01T18:11:01.988Z,41.56
2019-06-01T18:13:31.718Z,41.64
2019-06-01T18:15:59.486Z,41.72
2019-06-01T18:18:27.205Z,41.79
2019-06-01T18:20:56.603Z,41.83
2019-06-01T18:23:27.211Z,41.91
2019-06-01T18:25:54.946Z,42.04
2019-06-01T18:28:23.247Z,42.20
2019-06-01T18:30:51.029Z,42.38
2019-06-01T18:33:19.204Z,42.51
2019-06-01T18:35:48.889Z,42.83
2019-06-01T18:38:16.686Z,42.83
2019-06-01T18:40:51.472Z,43.20
2019-06-01T18:43:19.596Z,43.49
2019-06-01T18:45:50.332Z,43.75
2019-06-01T18:48:18.409Z,44.03
2019-06-01T18:50:46.694Z,44.29
2019-06-01T18:53:16.078Z,44.51
2019-06-01T18:55:43.814Z,44.75
2019-06-01T18:58:12.557Z,44.93
2019-06-01T19:00:40.390Z,45.72
2019-06-01T19:03:09.022Z,45.72
2019-06-01T19:05:37.362Z,45.53
2019-06-01T19:08:05.570Z,45.74
2019-06-01T19:10:42.554Z,45.91
2019-06-01T19:13:11.713Z,46.08
2019-06-01T19:15:41.203Z,46.25
2019-06-01T19:18:10.340Z,46.38
2019-06-01T19:20:40.898Z,46.54
2019-06-01T19:23:08.791Z,47.12
2019-06-01T19:25:38.155Z,46.91
2019-06-01T19:28:08.855Z,46.91
2019-06-01T19:30:49.231Z,47.79
2019-06-01T19:33:14.197Z,47.79
2019-06-01T19:35:40.668Z,47.71
2019-06-01T19:38:09.108Z,47.82
2019-06-01T19:40:38.369Z,47.96
2019-06-01T19:43:09.412Z,48.12
2019-06-01T19:45:47.355Z,48.24
2019-06-01T19:48:16.516Z,48.37
2019-06-01T19:50:44.539Z,48.55
2019-06-01T19:53:14.809Z,48.66
2019-06-01T19:55:42.714Z,48.81
2019-06-01T19:58:11.961Z,48.81
2019-06-01T20:00:40.227Z,48.81
2019-06-01T20:03:08.034Z,49.18
2019-06-01T20:05:35.773Z,49.45
2019-06-01T20:08:06.581Z,49.42
2019-06-01T20:10:34.356Z,49.42
2019-06-01T20:13:05.144Z,49.99
2019-06-01T20:15:37.387Z,50.49
2019-06-01T20:18:25.542Z,51.23
2019-06-01T20:20:56.461Z,51.23
2019-06-01T20:23:24.243Z,51.20
2019-06-01T20:25:53.321Z,51.27
2019-06-01T20:28:21.762Z,51.32
2019-06-01T20:30:49.574Z,51.37
2019-06-01T20:33:18.302Z,51.38
2019-06-01T20:35:48.152Z,51.76
2019-06-01T20:38:16.605Z,51.20
2019-06-01T20:40:48.314Z,51.20
2019-06-01T20:43:20.835Z,51.67
2019-06-01T20:45:49.716Z,51.45
2019-06-01T20:48:18.826Z,51.45
2019-06-01T20:50:46.862Z,51.64
2019-06-01T20:53:14.908Z,52.54
2019-06-01T20:55:43.196Z,52.54
2019-06-01T20:58:11.005Z,52.23
2019-06-01T21:00:38.845Z,52.40
2019-06-01T21:03:17.714Z,52.58
2019-06-01T21:05:37.757Z,52.71
2019-06-01T21:08:06.344Z,52.88
2019-06-01T21:10:34.568Z,52.75
2019-06-01T21:13:07.780Z,53.80
2019-06-01T21:15:35.775Z,53.80
2019-06-01T21:18:05.440Z,53.58
2019-06-01T21:20:36.036Z,53.70
2019-06-01T21:23:06.989Z,53.74
2019-06-01T21:25:34.766Z,53.80
2019-06-01T21:28:02.569Z,53.83
2019-06-01T21:30:30.771Z,53.49
2019-06-01T21:33:00.221Z,53.49
2019-06-01T21:35:30.547Z,54.10
2019-06-01T21:37:58.612Z,54.19
2019-06-01T21:40:32.375Z,54.26
2019-06-01T21:43:07.312Z,54.35
2019-06-01T21:45:30.045Z,54.41
2019-06-01T21:47:57.851Z,54.47
2019-06-01T21:50:27.242Z,54.52
2019-06-01T21:52:55.507Z,54.58
2019-06-01T21:55:24.463Z,54.55
2019-06-01T21:57:52.677Z,54.53
2019-06-01T22:00:22.628Z,54.93
2019-06-01T22:02:50.399Z,54.93
2019-06-01T22:05:18.665Z,54.63
2019-06-01T22:07:48.618Z,54.61
2019-06-01T22:10:17.075Z,54.75
2019-06-01T22:12:47.479Z,54.70
2019-06-01T22:15:19.441Z,54.70
2019-06-01T22:17:51.514Z,54.97
2019-06-01T22:20:28.624Z,55.02
2019-06-01T22:22:59.351Z,54.97
2019-06-01T22:25:31.431Z,54.97
2019-06-01T22:27:56.739Z,55.17
2019-06-01T22:30:24.825Z,55.23
2019-06-01T22:32:55.233Z,55.28
2019-06-01T22:35:24.649Z,55.32
2019-06-01T22:37:52.483Z,55.36
2019-06-01T22:40:20.875Z,55.38
2019-06-01T22:42:51.639Z,55.41
2019-06-01T22:45:22.458Z,55.13
2019-06-01T22:47:50.263Z,55.13
2019-06-01T22:50:18.303Z,55.46
2019-06-01T22:52:46.418Z,55.43
2019-06-01T22:55:14.605Z,55.43
2019-06-01T22:57:43.360Z,55.44
2019-06-01T23:00:15.889Z,55.46
2019-06-01T23:02:47.004Z,55.48
2019-06-01T23:05:14.810Z,55.48
2019-06-01T23:07:44.426Z,55.54
2019-06-01T23:10:12.644Z,55.54
2019-06-01T23:12:40.413Z,55.58
2019-06-01T23:15:08.434Z,55.62
2019-06-01T23:17:38.150Z,55.67
2019-06-01T23:20:06.012Z,55.70
2019-06-01T23:22:33.890Z,55.75
2019-06-01T23:25:02.154Z,55.84
2019-06-01T23:27:31.091Z,55.90
2019-06-01T23:29:59.231Z,55.96
2019-06-01T23:32:28.497Z,56.07
2019-06-01T23:35:06.146Z,56.15
2019-06-01T23:37:36.830Z,56.24
2019-06-01T23:40:04.728Z,56.29
2019-06-01T23:42:32.933Z,56.38
2019-06-01T23:45:01.283Z,56.49
2019-06-01T23:47:29.390Z,56.60
2019-06-01T23:49:58.443Z,56.59
2019-06-01T23:52:27.437Z,56.59
2019-06-01T23:54:57.708Z,56.96
2019-06-01T23:57:25.744Z,57.06
2019-06-01T23:59:53.520Z,57.15
